Data ze zpráv METAR

Na této stránce "Data ze zpráv METAR" si můžete prohlédnout aktuální data o počasí z českých letišť.

LKKB - Kbely, Czech Republic
Distance from station: JJZ 98km
Aktualizováno v: 24/02/2018 04:00
Jasno
Jasno
 Vítr od SZ
Vítr: SZ 9 km/h
Teplota vzduchu: -8°C
Wind Chill: -12°C
Rosný bod: -11°C
Vlhkost: 79%
Tlak vzduchu: 1023 hPa
Souhrn: Jasno
Visibility: greater than 10 km
2018/02/24 03:00 LKKB 240300Z 31005KT 300V020 CAVOK M08/M11 Q1023
LKPR - Prague/Ruzyne, Czech Republic
Distance from station: JJZ 108km
Aktualizováno v: 24/02/2018 04:30
Polojasno
Polojasno
 Vítr od SZ
Vítr: SZ 9 km/h
Teplota vzduchu: -10°C
Wind Chill: -15°C
Rosný bod: -12°C
Vlhkost: 85%
Tlak vzduchu: 1022 hPa
Clouds: Polojasno
Visibility: 7 km
2018/02/24 03:30 LKPR 240330Z 32005KT 7000 NSC M10/M12 Q1022 NOSIG
 
LKPD - Pardubice, Czech Republic
Distance from station: JJV 111km
Aktualizováno v: 24/02/2018 04:00
Jasno
Jasno
 Vítr od SZ
Vítr: SZ 6 km/h
Teplota vzduchu: -7°C
Rosný bod: -11°C
Vlhkost: 73%
Tlak vzduchu: 1022 hPa
Souhrn: Jasno
Visibility: greater than 10 km
2018/02/24 03:00 LKPD 240300Z 32003KT CAVOK M07/M11 Q1022
LKCV - Caslav, Czech Republic
Distance from station: JJV 113km
Aktualizováno v: 24/02/2018 04:00
Jasno
Jasno
 Vítr od SSV
Vítr: SSV 9 km/h
Teplota vzduchu: -7°C
Wind Chill: -12°C
Rosný bod: -11°C
Vlhkost: 73%
Tlak vzduchu: 1022 hPa
Souhrn: Jasno
Visibility: greater than 10 km
2018/02/24 03:00 LKCV 240300Z 03005KT CAVOK M07/M11 Q1022 NOSIG
 
LKKV - Karlovy Vary, Czech Republic
Distance from station: ZJZ 173km
Aktualizováno v: 24/02/2018 04:00
Polojasno
Polojasno
 Vítr od VJV
Vítr: VJV 7 km/h
Teplota vzduchu: -11°C
Wind Chill: -16°C
Rosný bod: -13°C
Vlhkost: 85%
Tlak vzduchu: 1020 hPa
Clouds: Polojasno
Visibility: 7 km
2018/02/24 03:00 LKKV 240300Z 11004KT 7000 NSC M11/M13 Q1020
LKLN - Plzen Line, Czech Republic
Distance from station: JZ 189km
Aktualizováno v: 24/02/2018 04:00
Mist, Jasno
Mist, Jasno
 Vítr od SSV
Vítr: SSV 6 km/h
Teplota vzduchu: -9°C
Rosný bod: -11°C
Vlhkost: 86%
Tlak vzduchu: 1022 hPa
Souhrn: Mist
Clouds: Jasno
Visibility: 5 km
2018/02/24 03:00 LKLN 240300Z AUTO 02003KT 350V070 5000 BR NCD M09/M11 Q1022
 
LKNA - Namest, Czech Republic
Distance from station: JJV 209km
Aktualizováno v: 24/02/2018 04:00
Jasno
Jasno
 Vítr od SSZ
Vítr: SSZ 15 km/h
Teplota vzduchu: -10°C
Wind Chill: -17°C
Rosný bod: -12°C
Vlhkost: 85%
Tlak vzduchu: 1019 hPa
Souhrn: Jasno
Visibility: greater than 10 km
2018/02/24 03:00 LKNA 240300Z 33008KT CAVOK M10/M12 Q1019
LKTB - Brno/Turany, Czech Republic
Distance from station: JJV 230km
Aktualizováno v: 24/02/2018 04:30
Jasno
Jasno
 Vítr od SSZ
Vítr: SSZ 9 km/h
Teplota vzduchu: -6°C
Wind Chill: -11°C
Rosný bod: -11°C
Vlhkost: 68%
Tlak vzduchu: 1021 hPa
Souhrn: Jasno
Visibility: greater than 10 km
2018/02/24 03:30 LKTB 240330Z 33005KT CAVOK M06/M11 Q1021 NOSIG